Time;durP1;ratioP1;P1;durP2;ratioP2;P2;SDS_P1;SDS_P2;PMS_P1;PMS_P2;Temp;Humidity;BMP_temperature;BMP_pressure;BME280_temperature;BME280_humidity;BME280_pressure;Samples;Min_cycle;Max_cycle;Signal;HPM_P1;HPM_P2
2023/02/19 00:01:20;;;;;;;;;;;;;;;16.15;43.22;100803.34;5075713;28;1018;-47
2023/02/19 00:03:49;;;;;;;;;;;;;;;15.74;43.98;100809.47;5075787;28;1038;-43
2023/02/19 00:06:14;;;;;;;;;;;;;;;15.57;44.37;100792.38;5062543;28;1083;-45
2023/02/19 00:08:40;;;;;;;;;;;;;;;16.49;42.38;100782.81;5075742;28;1078;-47
2023/02/19 00:11:06;;;;;;;;;;;;;;;16.93;41.41;100780.41;5062854;28;1965;-44
2023/02/19 00:13:35;;;;;;;;;;;;;;;16.05;43.47;100786.84;5062636;28;1072;-43
2023/02/19 00:16:04;;;;;;;;;;;;;;;15.73;44.04;100774.09;5076391;28;1035;-43
2023/02/19 00:18:29;;;;;;;;;;;;;;;15.55;44.37;100772.63;5075229;28;1125;-45
2023/02/19 00:20:56;;;;;;;;;;;;;;;15.35;44.92;100779.66;5070033;28;1122;-44
2023/02/19 00:23:21;;;;;;;;;;;;;;;16.34;42.70;100773.47;5073506;28;1127;-43
2023/02/19 00:25:47;;;;;;;;;;;;;;;17.34;40.63;100771.25;5049723;28;1028;-45
2023/02/19 00:28:12;;;;;;;;;;;;;;;16.20;42.74;100775.06;5066443;28;1058;-44
2023/02/19 00:30:37;;;;;;;;;;;;;;;15.77;44.05;100775.22;5072410;28;1898;-47
2023/02/19 00:33:03;;;;;;;;;;;;;;;15.57;44.53;100746.63;5055111;28;1405;-43
2023/02/19 00:35:28;;;;;;;;;;;;;;;15.45;44.96;100745.19;5049078;28;1091;-46
2023/02/19 00:37:54;;;;;;;;;;;;;;;15.82;44.10;100739.63;5079439;28;1095;-47
2023/02/19 00:40:19;;;;;;;;;;;;;;;17.25;40.83;100732.53;5073208;28;1091;-43
2023/02/19 00:42:45;;;;;;;;;;;;;;;16.26;42.87;100735.59;5072580;28;1294;-42
2023/02/19 00:45:14;;;;;;;;;;;;;;;15.75;44.27;100733.50;5059472;28;1070;-48
2023/02/19 00:47:39;;;;;;;;;;;;;;;15.59;44.28;100735.38;5073184;28;1131;-45
2023/02/19 00:50:05;;;;;;;;;;;;;;;15.40;44.97;100733.13;5066876;28;1898;-46
2023/02/19 00:52:31;;;;;;;;;;;;;;;16.42;42.68;100719.97;5066470;28;1119;-45
2023/02/19 00:54:56;;;;;;;;;;;;;;;17.03;41.05;100719.13;5079186;28;921;-42
2023/02/19 00:57:22;;;;;;;;;;;;;;;16.07;43.30;100714.19;5065931;28;1189;-46
2023/02/19 00:59:47;;;;;;;;;;;;;;;15.69;44.13;100705.25;5094856;28;1304;-44
2023/02/19 01:02:13;;;;;;;;;;;;;;;15.50;44.60;100696.72;5094495;28;1253;-44
2023/02/19 01:04:38;;;;;;;;;;;;;;;15.34;45.31;100698.53;5079770;28;1090;-45
2023/02/19 01:07:04;;;;;;;;;;;;;;;16.77;41.91;100701.81;5078655;28;1066;-45
2023/02/19 01:09:29;;;;;;;;;;;;;;;17.03;40.94;100699.91;5066309;28;1205;-46
2023/02/19 01:11:55;;;;;;;;;;;;;;;16.07;43.24;100678.53;5078736;28;1988;-45
2023/02/19 01:14:20;;;;;;;;;;;;;;;15.77;43.90;100698.44;5079049;28;991;-46
2023/02/19 01:16:45;;;;;;;;;;;;;;;15.55;44.69;100690.41;5078742;28;1018;-44
2023/02/19 01:19:11;;;;;;;;;;;;;;;15.97;43.70;100697.69;5078130;28;1054;-49
2023/02/19 01:21:38;;;;;;;;;;;;;;;17.31;40.67;100685.81;5094407;28;1575;-45
2023/02/19 01:24:03;;;;;;;;;;;;;;;16.32;42.60;100676.88;5048157;28;1008;-45
2023/02/19 01:26:29;;;;;;;;;;;;;;;15.81;43.90;100687.78;5065637;28;1088;-45
2023/02/19 01:28:55;;;;;;;;;;;;;;;15.59;44.63;100677.00;5065350;28;1135;-43
2023/02/19 01:31:21;;;;;;;;;;;;;;;15.50;44.91;100682.16;5064920;28;1914;-46
2023/02/19 01:33:47;;;;;;;;;;;;;;;15.31;45.15;100685.38;5059387;28;1110;-49
2023/02/19 01:36:12;;;;;;;;;;;;;;;15.47;44.76;100682.72;5066105;28;1151;-44
2023/02/19 01:38:38;;;;;;;;;;;;;;;17.05;41.30;100683.13;5072126;28;1199;-49
2023/02/19 01:41:04;;;;;;;;;;;;;;;16.73;41.67;100681.50;5071774;28;1110;-47
2023/02/19 01:43:33;;;;;;;;;;;;;;;15.94;43.77;100675.47;5070960;28;1217;-46
2023/02/19 01:45:59;;;;;;;;;;;;;;;15.65;44.40;100674.00;5071758;28;1078;-47
2023/02/19 01:48:31;;;;;;;;;;;;;;;15.46;44.87;100657.22;5071942;28;1087;-48
2023/02/19 01:51:08;;;;;;;;;;;;;;;16.32;42.93;100654.09;5071415;28;1913;-46
2023/02/19 01:53:36;;;;;;;;;;;;;;;17.18;40.94;100655.06;5033204;28;1692;-47
2023/02/19 01:56:02;;;;;;;;;;;;;;;16.14;43.28;100652.72;5080069;28;1573;-45
2023/02/19 01:58:28;;;;;;;;;;;;;;;15.77;43.94;100651.84;5093969;28;1391;-46
2023/02/19 02:00:54;;;;;;;;;;;;;;;15.56;44.64;100656.44;5060616;28;1035;-45
2023/02/19 02:03:19;;;;;;;;;;;;;;;15.37;45.08;100656.91;5093756;28;1126;-45
2023/02/19 02:05:45;;;;;;;;;;;;;;;15.45;45.04;100646.53;5093491;28;1099;-45
2023/02/19 02:10:55;;;;;;;;;;;;;;;16.37;42.75;100641.22;5091903;28;1913;-43
2023/02/19 02:13:20;;;;;;;;;;;;;;;15.81;44.09;100639.25;5076199;28;1237;-43
2023/02/19 02:15:46;;;;;;;;;;;;;;;15.57;44.71;100638.88;5077750;28;1003;-45
2023/02/19 02:18:29;;;;;;;;;;;;;;;16.60;42.54;100641.72;5059714;28;1592;-44
2023/02/19 02:21:13;;;;;;;;;;;;;;;16.95;41.25;100640.03;5047069;28;1158;-45
2023/02/19 02:23:51;;;;;;;;;;;;;;;16.05;43.64;100644.22;5074829;28;1098;-44
2023/02/19 02:26:22;;;;;;;;;;;;;;;15.71;44.48;100641.94;5034319;28;1297;-48
2023/02/19 02:28:47;;;;;;;;;;;;;;;15.51;44.77;100642.72;5059838;28;1211;-45
2023/02/19 02:31:14;;;;;;;;;;;;;;;15.37;45.10;100645.94;5076952;28;1902;-49
2023/02/19 02:33:47;;;;;;;;;;;;;;;16.49;42.81;100646.41;5063552;28;1170;-49
2023/02/19 02:36:12;;;;;;;;;;;;;;;17.09;41.15;100651.25;5047502;28;1189;-46
2023/02/19 02:38:38;;;;;;;;;;;;;;;16.14;43.17;100645.31;5045765;28;1106;-45
2023/02/19 02:41:04;;;;;;;;;;;;;;;15.72;44.15;100649.91;5064813;28;1150;-47
2023/02/19 02:43:30;;;;;;;;;;;;;;;15.56;44.54;100653.69;5035093;28;1340;-47
2023/02/19 02:45:55;;;;;;;;;;;;;;;15.40;45.17;100650.91;5052655;28;1126;-44
2023/02/19 02:48:26;;;;;;;;;;;;;;;16.09;43.62;100639.84;5056311;28;1102;-44
2023/02/19 02:50:52;;;;;;;;;;;;;;;17.16;40.98;100635.28;5052813;28;1976;-45
2023/02/19 02:56:15;;;;;;;;;;;;;;;15.70;44.36;100649.34;5048997;28;1165;-48
2023/02/19 02:58:42;;;;;;;;;;;;;;;15.51;44.84;100649.00;5077267;28;1130;-45
2023/02/19 03:03:58;;;;;;;;;;;;;;;17.39;40.58;100653.06;5052963;28;1101;-48
2023/02/19 03:06:25;;;;;;;;;;;;;;;16.25;43.05;100657.94;5091653;28;1288;-46
2023/02/19 03:08:51;;;;;;;;;;;;;;;15.77;44.23;100657.31;5074014;28;1118;-45
2023/02/19 03:19:33;;;;;;;;;;;;;;;16.13;43.21;100657.41;5068113;28;1103;-44
2023/02/19 03:22:09;;;;;;;;;;;;;;;15.76;44.19;100663.06;5041978;28;1098;-48
2023/02/19 03:27:20;;;;;;;;;;;;;;;16.25;43.20;100659.88;5042447;28;1044;-47
2023/02/19 03:29:49;;;;;;;;;;;;;;;17.18;40.99;100659.72;5052489;28;1271;-48
2023/02/19 03:32:34;;;;;;;;;;;;;;;16.17;43.13;100665.91;5051716;28;1200;-45
2023/02/19 03:35:01;;;;;;;;;;;;;;;15.75;44.43;100662.22;5069515;28;1302;-44
2023/02/19 03:37:37;;;;;;;;;;;;;;;15.51;45.00;100673.69;5031604;28;1048;-46
2023/02/19 03:40:03;;;;;;;;;;;;;;;15.39;45.26;100668.44;5058227;28;1233;-43
2023/02/19 03:42:33;;;;;;;;;;;;;;;15.95;44.08;100680.69;5066649;28;1134;-45
2023/02/19 03:45:08;;;;;;;;;;;;;;;17.36;40.75;100669.28;5075025;28;1199;-44
2023/02/19 03:47:42;;;;;;;;;;;;;;;16.28;43.19;100675.78;5074664;28;1186;-46
2023/02/19 03:50:11;;;;;;;;;;;;;;;15.82;44.05;100673.81;5062505;28;1909;-44
2023/02/19 03:52:41;;;;;;;;;;;;;;;15.60;44.77;100673.16;5075317;28;1364;-43
2023/02/19 03:55:29;;;;;;;;;;;;;;;15.41;45.25;100668.16;5057223;28;1103;-45
2023/02/19 03:57:57;;;;;;;;;;;;;;;17.17;41.41;100669.09;5081290;28;1225;-46
2023/02/19 04:00:37;;;;;;;;;;;;;;;16.56;42.51;100659.84;5092067;28;1075;-46
2023/02/19 04:03:21;;;;;;;;;;;;;;;15.88;43.98;100655.47;5074807;28;1178;-46
2023/02/19 04:05:48;;;;;;;;;;;;;;;15.60;44.75;100660.28;5092248;28;1292;-44
2023/02/19 04:08:15;;;;;;;;;;;;;;;15.43;45.25;100659.69;5074392;28;1197;-44
2023/02/19 04:10:45;;;;;;;;;;;;;;;15.73;44.47;100667.97;5058930;28;1914;-44
2023/02/19 04:13:14;;;;;;;;;;;;;;;17.28;40.82;100681.69;5091705;28;1371;-43
2023/02/19 04:15:39;;;;;;;;;;;;;;;16.36;42.81;100683.47;5074925;28;1059;-45
2023/02/19 04:18:06;;;;;;;;;;;;;;;15.80;44.14;100705.34;5074606;28;1031;-47
2023/02/19 04:20:33;;;;;;;;;;;;;;;15.53;45.03;100711.81;5074622;28;1063;-49
2023/02/19 04:22:58;;;;;;;;;;;;;;;15.38;45.40;100702.41;5074209;28;2260;-48
2023/02/19 04:25:25;;;;;;;;;;;;;;;16.17;43.64;100696.06;5107686;28;1831;-44
2023/02/19 04:27:50;;;;;;;;;;;;;;;17.31;40.92;100694.88;5073777;28;1817;-46
2023/02/19 04:30:15;;;;;;;;;;;;;;;16.21;43.32;100695.25;5075421;28;1988;-49
2023/02/19 04:32:41;;;;;;;;;;;;;;;15.76;44.21;100701.47;5076898;28;1849;-47
2023/02/19 04:35:06;;;;;;;;;;;;;;;15.50;44.82;100704.09;5077280;28;2162;-53
2023/02/19 04:37:32;;;;;;;;;;;;;;;15.30;45.53;100713.88;5074130;28;2087;-48
2023/02/19 04:39:57;;;;;;;;;;;;;;;16.76;42.27;100701.00;5075874;28;1101;-50
2023/02/19 04:42:23;;;;;;;;;;;;;;;16.71;41.96;100687.28;5075375;28;1111;-49
2023/02/19 04:44:48;;;;;;;;;;;;;;;15.99;43.87;100694.66;5070379;28;1091;-49
2023/02/19 04:47:16;;;;;;;;;;;;;;;15.69;44.49;100688.81;5065524;28;980;-50
2023/02/19 04:49:42;;;;;;;;;;;;;;;15.44;45.09;100692.28;5070730;28;1042;-47
2023/02/19 04:52:07;;;;;;;;;;;;;;;15.92;44.27;100708.63;5044941;28;1977;-47
2023/02/19 04:54:33;;;;;;;;;;;;;;;17.30;41.08;100701.47;5058275;28;1057;-46
2023/02/19 04:56:58;;;;;;;;;;;;;;;16.23;43.11;100714.19;5056743;28;1127;-47
2023/02/19 04:59:24;;;;;;;;;;;;;;;15.77;44.19;100716.78;5074954;28;1026;-46
2023/02/19 05:01:49;;;;;;;;;;;;;;;15.57;45.03;100721.09;5061753;28;1107;-46
2023/02/19 05:04:15;;;;;;;;;;;;;;;15.42;45.38;100734.75;5074897;28;1047;-46
2023/02/19 05:06:40;;;;;;;;;;;;;;;15.48;45.33;100755.63;5075984;28;1026;-48
2023/02/19 05:09:05;;;;;;;;;;;;;;;17.09;41.39;100753.72;5065027;28;2248;-46
2023/02/19 05:11:31;;;;;;;;;;;;;;;16.50;42.74;100762.53;5065632;28;1980;-47
2023/02/19 05:13:56;;;;;;;;;;;;;;;15.89;44.04;100766.75;5071506;28;1219;-47
2023/02/19 05:16:22;;;;;;;;;;;;;;;15.57;44.72;100774.03;5059097;28;1376;-47
2023/02/19 05:18:47;;;;;;;;;;;;;;;15.38;45.15;100779.13;5078042;28;1078;-46
2023/02/19 05:21:13;;;;;;;;;;;;;;;15.36;45.49;100786.78;5078117;28;1089;-46
2023/02/19 05:23:38;;;;;;;;;;;;;;;16.96;41.65;100783.69;5071315;28;1059;-48
2023/02/19 05:26:07;;;;;;;;;;;;;;;16.45;42.79;100795.44;5072143;28;1102;-49
2023/02/19 05:28:33;;;;;;;;;;;;;;;15.84;44.12;100785.97;5057923;28;1422;-49
2023/02/19 05:30:59;;;;;;;;;;;;;;;15.54;44.79;100796.50;5060863;28;1902;-49
2023/02/19 05:33:25;;;;;;;;;;;;;;;15.40;45.14;100809.00;5030153;28;1383;-47
2023/02/19 05:35:51;;;;;;;;;;;;;;;16.91;41.82;100812.81;5070046;28;1089;-45
2023/02/19 05:38:17;;;;;;;;;;;;;;;16.63;42.27;100825.09;5065071;28;1789;-46
2023/02/19 05:40:42;;;;;;;;;;;;;;;15.89;44.24;100824.34;5077219;28;1198;-46
2023/02/19 05:43:08;;;;;;;;;;;;;;;15.62;44.68;100825.28;5075379;28;1157;-48
2023/02/19 05:45:33;;;;;;;;;;;;;;;15.47;45.20;100827.94;5077830;28;868;-46
2023/02/19 05:47:59;;;;;;;;;;;;;;;15.29;45.46;100830.03;5077702;28;1075;-46
2023/02/19 05:50:24;;;;;;;;;;;;;;;16.16;43.52;100837.06;5077965;28;1906;-45
2023/02/19 05:52:50;;;;;;;;;;;;;;;17.36;40.98;100842.44;5077867;28;1146;-45
2023/02/19 05:55:16;;;;;;;;;;;;;;;16.22;43.35;100846.97;5077456;28;1122;-45
2023/02/19 05:57:41;;;;;;;;;;;;;;;15.81;44.35;100846.78;5077523;28;1364;-49
2023/02/19 06:00:08;;;;;;;;;;;;;;;15.55;44.76;100849.38;5077170;28;1206;-49
2023/02/19 06:02:37;;;;;;;;;;;;;;;15.44;45.01;100853.16;5077635;28;1006;-46
2023/02/19 06:05:03;;;;;;;;;;;;;;;17.08;41.35;100861.13;5077924;28;1091;-46
2023/02/19 06:07:29;;;;;;;;;;;;;;;16.37;43.09;100868.97;5076866;28;1920;-46
2023/02/19 06:09:55;;;;;;;;;;;;;;;15.84;44.15;100879.19;5077772;28;947;-48
2023/02/19 06:12:20;;;;;;;;;;;;;;;15.60;44.85;100881.47;5075872;28;1914;-45
2023/02/19 06:14:45;;;;;;;;;;;;;;;15.40;45.34;100885.72;5073666;28;1199;-48
2023/02/19 06:17:11;;;;;;;;;;;;;;;17.13;41.08;100888.63;5072881;28;1275;-45
2023/02/19 06:19:36;;;;;;;;;;;;;;;15.74;44.27;100879.94;5075041;28;1139;-45
2023/02/19 06:22:02;;;;;;;;;;;;;;;15.31;45.09;100885.38;5076231;28;1262;-45
2023/02/19 06:24:27;;;;;;;;;;;;;;;16.92;41.70;100874.06;5064993;28;1214;-46
2023/02/19 06:26:53;;;;;;;;;;;;;;;15.68;44.41;100868.09;5063584;28;1273;-46
2023/02/19 06:29:18;;;;;;;;;;;;;;;15.26;45.10;100873.56;5076723;28;1348;-45
2023/02/19 06:31:44;;;;;;;;;;;;;;;16.62;42.08;100870.16;5075751;28;2009;-46
2023/02/19 06:34:09;;;;;;;;;;;;;;;15.61;44.36;100880.38;5076286;28;1416;-46
2023/02/19 06:36:35;;;;;;;;;;;;;;;17.56;40.53;100888.34;5076871;28;1060;-45
2023/02/19 06:39:00;;;;;;;;;;;;;;;16.75;42.03;100897.06;5076490;28;2064;-46
2023/02/19 06:41:26;;;;;;;;;;;;;;;16.00;43.77;100908.31;5076599;28;1119;-45
2023/02/19 06:43:51;;;;;;;;;;;;;;;17.03;41.40;100900.44;5076645;28;1126;-46
2023/02/19 06:46:17;;;;;;;;;;;;;;;16.08;43.59;100890.53;5076552;28;883;-45
2023/02/19 06:48:42;;;;;;;;;;;;;;;16.80;42.42;100874.28;5077102;28;1057;-47
2023/02/19 06:51:14;;;;;;;;;;;;;;;16.82;41.76;100876.78;5077073;28;1963;-47
2023/02/19 06:53:40;;;;;;;;;;;;;;;16.06;43.71;100859.78;5076705;28;1047;-48
2023/02/19 06:56:06;;;;;;;;;;;;;;;15.83;43.93;100867.38;5076476;28;1086;-47
2023/02/19 06:58:32;;;;;;;;;;;;;;;16.54;42.54;100863.25;5073169;28;1076;-45
2023/02/19 07:00:57;;;;;;;;;;;;;;;15.93;44.20;100877.56;5056333;28;1226;-46
2023/02/19 07:03:23;;;;;;;;;;;;;;;18.02;39.59;100882.75;5056600;28;1284;-45
2023/02/19 07:05:48;;;;;;;;;;;;;;;16.80;42.15;100889.94;5071960;28;1063;-46
2023/02/19 07:08:16;;;;;;;;;;;;;;;16.25;43.24;100879.38;5076542;28;2105;-46
2023/02/19 07:10:41;;;;;;;;;;;;;;;17.30;41.02;100893.03;5075984;28;1906;-45
2023/02/19 07:13:07;;;;;;;;;;;;;;;16.29;43.19;100879.66;5075774;28;1138;-45
2023/02/19 07:15:32;;;;;;;;;;;;;;;16.01;43.38;100877.06;5074715;28;1277;-49
2023/02/19 07:17:58;;;;;;;;;;;;;;;17.27;41.34;100866.91;5073794;28;1250;-45
2023/02/19 07:20:23;;;;;;;;;;;;;;;16.31;43.03;100861.81;5078635;28;1066;-47
2023/02/19 07:22:49;;;;;;;;;;;;;;;15.98;43.90;100854.84;5075526;28;970;-47
2023/02/19 07:25:14;;;;;;;;;;;;;;;17.13;41.48;100866.66;5075446;28;1396;-45
2023/02/19 07:27:40;;;;;;;;;;;;;;;16.27;43.10;100870.84;5076138;28;975;-47
2023/02/19 07:30:05;;;;;;;;;;;;;;;16.53;42.79;100874.50;5075948;28;1965;-46
2023/02/19 07:32:31;;;;;;;;;;;;;;;17.30;41.08;100871.03;5076384;28;1063;-45
2023/02/19 07:34:56;;;;;;;;;;;;;;;16.31;43.03;100892.00;5060296;28;1421;-48
2023/02/19 07:37:22;;;;;;;;;;;;;;;16.13;43.77;100884.25;5064610;28;1895;-45
2023/02/19 07:39:47;;;;;;;;;;;;;;;16.71;42.08;100886.91;5075283;28;1527;-49
2023/02/19 07:42:13;;;;;;;;;;;;;;;16.16;43.51;100894.69;5075906;28;991;-47
2023/02/19 07:44:38;;;;;;;;;;;;;;;17.31;41.12;100879.00;5075587;28;1142;-45
2023/02/19 07:47:04;;;;;;;;;;;;;;;16.37;43.12;100879.97;5075895;28;888;-45
2023/02/19 07:49:29;;;;;;;;;;;;;;;16.08;43.66;100883.13;5075137;28;1051;-44
2023/02/19 07:51:54;;;;;;;;;;;;;;;17.45;40.69;100891.06;5075549;28;2345;-44
2023/02/19 07:54:20;;;;;;;;;;;;;;;16.33;43.26;100902.72;5075795;28;1197;-46
2023/02/19 07:56:45;;;;;;;;;;;;;;;15.98;43.92;100896.00;5075914;28;1083;-49
2023/02/19 07:59:11;;;;;;;;;;;;;;;17.62;40.70;100899.03;5072477;28;929;-47
2023/02/19 08:04:20;;;;;;;;;;;;;;;15.96;43.90;100882.53;5073792;28;1532;-47
2023/02/19 08:06:46;;;;;;;;;;;;;;;17.42;40.92;100872.41;5075036;28;1288;-47
2023/02/19 08:09:11;;;;;;;;;;;;;;;16.42;42.88;100882.72;5084809;28;2066;-51
2023/02/19 08:14:24;;;;;;;;;;;;;;;17.00;41.75;100865.28;5075144;28;1074;-44
2023/02/19 08:16:49;;;;;;;;;;;;;;;16.58;42.77;100860.81;5075695;28;1057;-46
2023/02/19 08:19:15;;;;;;;;;;;;;;;18.51;38.55;100861.03;5074637;28;1354;-47
2023/02/19 08:21:40;;;;;;;;;;;;;;;16.91;41.71;100853.19;5074921;28;1189;-47
2023/02/19 08:24:06;;;;;;;;;;;;;;;16.40;43.02;100864.88;5075195;28;1091;-49
2023/02/19 08:26:31;;;;;;;;;;;;;;;16.28;43.04;100867.84;5074822;28;1243;-50
2023/02/19 08:28:57;;;;;;;;;;;;;;;17.09;41.64;100838.06;5075441;28;1092;-50
2023/02/19 08:31:23;;;;;;;;;;;;;;;16.41;42.87;100833.56;5075714;28;1977;-48
2023/02/19 08:33:48;;;;;;;;;;;;;;;17.86;40.08;100839.84;5074888;28;1146;-47
2023/02/19 08:36:14;;;;;;;;;;;;;;;16.95;41.81;100845.22;5075119;28;1026;-48
2023/02/19 08:38:39;;;;;;;;;;;;;;;16.49;42.93;100830.31;5072426;28;1776;-48
2023/02/19 08:41:08;;;;;;;;;;;;;;;16.30;43.30;100835.50;5075336;28;1387;-46
2023/02/19 08:43:34;;;;;;;;;;;;;;;16.41;42.96;100837.16;5078779;28;1154;-46
2023/02/19 08:45:59;;;;;;;;;;;;;;;16.78;42.38;100838.03;5078259;28;1066;-48
2023/02/19 08:48:25;;;;;;;;;;;;;;;16.13;43.46;100823.91;5079479;28;1066;-48
2023/02/19 08:50:57;;;;;;;;;;;;;;;17.85;40.15;100825.28;5078975;28;1905;-50
2023/02/19 08:53:22;;;;;;;;;;;;;;;16.50;42.81;100822.91;5078861;28;1205;-46
2023/02/19 08:55:48;;;;;;;;;;;;;;;16.23;43.45;100812.97;5076183;28;1086;-48
2023/02/19 08:58:13;;;;;;;;;;;;;;;17.10;41.51;100826.81;5072808;28;991;-49
2023/02/19 09:00:38;;;;;;;;;;;;;;;16.35;43.27;100824.50;5071127;28;1015;-49
2023/02/19 09:03:04;;;;;;;;;;;;;;;16.03;43.60;100831.00;5078901;28;1130;-48
2023/02/19 09:05:30;;;;;;;;;;;;;;;16.64;42.75;100817.72;5071113;28;1378;-48
2023/02/19 09:07:55;;;;;;;;;;;;;;;16.52;42.77;100828.94;5078912;28;1844;-48
2023/02/19 09:10:21;;;;;;;;;;;;;;;16.10;43.53;100838.16;5076831;28;1901;-50
2023/02/19 09:12:46;;;;;;;;;;;;;;;16.37;43.41;100847.03;5078480;28;1039;-51
2023/02/19 09:15:12;;;;;;;;;;;;;;;16.72;42.50;100848.19;5078861;28;1296;-49
2023/02/19 09:17:37;;;;;;;;;;;;;;;16.22;43.69;100863.44;5078290;28;1304;-46
2023/02/19 09:20:03;;;;;;;;;;;;;;;17.50;40.97;100845.44;5078563;28;1292;-49
2023/02/19 09:22:28;;;;;;;;;;;;;;;16.48;43.19;100855.28;5078339;28;984;-48
2023/02/19 09:24:53;;;;;;;;;;;;;;;16.16;43.67;100856.28;5078466;28;1138;-48
2023/02/19 09:27:19;;;;;;;;;;;;;;;17.09;41.61;100852.63;5078085;28;1139;-47
2023/02/19 09:29:44;;;;;;;;;;;;;;;16.33;43.44;100858.81;5077918;28;1256;-49
2023/02/19 09:32:10;;;;;;;;;;;;;;;16.07;43.57;100850.47;5077947;28;1996;-47
2023/02/19 09:34:36;;;;;;;;;;;;;;;15.89;43.73;100860.84;5076994;28;1273;-49
2023/02/19 09:37:02;;;;;;;;;;;;;;;15.77;43.83;100851.13;5078099;28;1165;-45
2023/02/19 09:39:27;;;;;;;;;;;;;;;16.89;42.20;100852.63;5077960;28;1740;-48
2023/02/19 09:41:56;;;;;;;;;;;;;;;16.17;43.82;100850.53;5078143;28;1094;-46
2023/02/19 09:44:32;;;;;;;;;;;;;;;15.96;44.06;100838.63;5110098;28;1304;-48
2023/02/19 09:46:57;;;;;;;;;;;;;;;15.87;44.06;100829.28;5077920;28;1340;-48
2023/02/19 09:49:31;;;;;;;;;;;;;;;17.04;42.08;100833.41;5077573;28;1062;-50
2023/02/19 09:51:58;;;;;;;;;;;;;;;16.15;43.74;100829.94;5077849;28;1910;-48
2023/02/19 09:54:25;;;;;;;;;;;;;;;16.73;43.03;100829.78;5072747;28;1396;-46
2023/02/19 09:56:50;;;;;;;;;;;;;;;16.47;43.42;100837.19;5089962;28;1479;-48
2023/02/19 09:59:39;;;;;;;;;;;;;;;17.28;41.91;100828.16;5070429;28;841;-50
2023/02/19 10:02:18;;;;;;;;;;;;;;;17.83;40.19;100823.91;5064626;28;1085;-47
2023/02/19 10:04:44;;;;;;;;;;;;;;;16.69;42.64;100820.44;5077292;28;1063;-48
2023/02/19 10:07:11;;;;;;;;;;;;;;;16.39;43.33;100813.81;5077685;28;1182;-45
2023/02/19 10:09:37;;;;;;;;;;;;;;;16.25;43.65;100824.50;5077616;28;2271;-48
2023/02/19 10:12:02;;;;;;;;;;;;;;;16.05;43.78;100828.81;5076395;28;1906;-48
2023/02/19 10:14:35;;;;;;;;;;;;;;;17.06;42.09;100822.97;5076287;28;1107;-46
2023/02/19 10:17:02;;;;;;;;;;;;;;;16.30;43.80;100821.78;5076783;28;1016;-46
2023/02/19 10:19:27;;;;;;;;;;;;;;;16.06;43.99;100824.13;5063138;28;1231;-47
2023/02/19 10:21:52;;;;;;;;;;;;;;;16.03;44.03;100817.31;5077475;28;1427;-48
2023/02/19 10:24:27;;;;;;;;;;;;;;;16.01;43.89;100803.00;5077231;28;1023;-47
2023/02/19 10:26:53;;;;;;;;;;;;;;;16.60;43.35;100795.47;5077057;28;1079;-47
2023/02/19 10:29:20;;;;;;;;;;;;;;;16.11;44.26;100796.75;5076497;28;1177;-48
2023/02/19 10:31:45;;;;;;;;;;;;;;;15.96;44.10;100794.75;5077267;28;1918;-44
2023/02/19 10:34:16;;;;;;;;;;;;;;;16.48;43.60;100773.78;5076712;28;1139;-49
2023/02/19 10:36:41;;;;;;;;;;;;;;;16.63;43.25;100780.38;5077139;28;1133;-44
2023/02/19 10:39:25;;;;;;;;;;;;;;;17.32;41.99;100784.47;5076760;28;1799;-47
2023/02/19 10:41:50;;;;;;;;;;;;;;;18.17;39.96;100768.19;5109517;28;990;-48
2023/02/19 10:44:22;;;;;;;;;;;;;;;16.84;42.84;100779.25;5075593;28;1117;-48
2023/02/19 10:46:48;;;;;;;;;;;;;;;16.51;43.34;100783.34;5071131;28;1351;-49
2023/02/19 10:49:33;;;;;;;;;;;;;;;17.43;41.75;100766.84;5105902;28;1359;-51
2023/02/19 10:52:04;;;;;;;;;;;;;;;16.66;43.22;100764.19;5106264;28;1905;-45
2023/02/19 10:54:34;;;;;;;;;;;;;;;16.35;43.81;100758.66;5105334;28;1118;-48
2023/02/19 10:57:14;;;;;;;;;;;;;;;16.13;43.77;100763.53;5071642;28;1289;-47
2023/02/19 10:59:53;;;;;;;;;;;;;;;16.04;43.78;100758.59;5069646;28;1551;-49
2023/02/19 11:02:19;;;;;;;;;;;;;;;16.87;42.76;100759.50;5074413;28;1219;-45
2023/02/19 11:05:03;;;;;;;;;;;;;;;16.30;43.81;100749.56;5075862;28;1256;-47
2023/02/19 11:07:29;;;;;;;;;;;;;;;16.12;44.25;100745.44;5074508;28;1823;-44
2023/02/19 11:09:54;;;;;;;;;;;;;;;16.05;43.92;100738.28;5089284;28;1269;-45
2023/02/19 11:12:37;;;;;;;;;;;;;;;16.87;42.88;100740.28;5072166;28;1971;-47
2023/02/19 11:15:18;;;;;;;;;;;;;;;16.19;44.26;100744.09;5106227;28;1249;-48
2023/02/19 11:17:44;;;;;;;;;;;;;;;17.74;41.29;100739.22;5074711;28;991;-45
2023/02/19 11:20:13;;;;;;;;;;;;;;;16.62;43.34;100735.63;5071796;28;1125;-47
2023/02/19 11:22:39;;;;;;;;;;;;;;;16.27;44.18;100734.50;5105589;28;1297;-46
2023/02/19 11:25:13;;;;;;;;;;;;;;;16.11;43.99;100741.06;5055144;28;1316;-46
2023/02/19 11:27:57;;;;;;;;;;;;;;;16.75;43.25;100724.06;5065766;28;1218;-48
2023/02/19 11:30:28;;;;;;;;;;;;;;;16.21;44.27;100735.59;5076146;28;1976;-48
2023/02/19 11:32:54;;;;;;;;;;;;;;;17.53;41.71;100718.41;5076252;28;1069;-50
2023/02/19 11:35:21;;;;;;;;;;;;;;;16.39;44.07;100729.56;5074320;28;1062;-46
2023/02/19 11:37:55;;;;;;;;;;;;;;;16.22;44.16;100729.81;5072528;28;1837;-45
2023/02/19 11:40:34;;;;;;;;;;;;;;;16.03;44.26;100734.16;5076173;28;1015;-49
2023/02/19 11:43:04;;;;;;;;;;;;;;;16.80;43.16;100736.16;5074459;28;1203;-50
2023/02/19 11:45:34;;;;;;;;;;;;;;;16.82;43.07;100725.72;5076079;28;1095;-48
2023/02/19 11:48:00;;;;;;;;;;;;;;;16.97;42.90;100724.91;5074278;28;1092;-44
2023/02/19 11:50:48;;;;;;;;;;;;;;;18.39;39.76;100721.78;5071520;28;1979;-48
2023/02/19 11:53:32;;;;;;;;;;;;;;;16.81;43.16;100704.84;5075052;28;1260;-50
2023/02/19 11:56:13;;;;;;;;;;;;;;;16.50;43.71;100710.38;5108017;28;1279;-48
2023/02/19 11:58:57;;;;;;;;;;;;;;;16.37;43.67;100696.09;5076173;28;1122;-51
2023/02/19 12:01:29;;;;;;;;;;;;;;;16.19;43.94;100693.88;5075535;28;1218;-46
2023/02/19 12:03:57;;;;;;;;;;;;;;;17.27;42.04;100691.84;5075425;28;995;-47
2023/02/19 12:06:26;;;;;;;;;;;;;;;16.54;43.94;100678.53;5075681;28;1058;-49
2023/02/19 12:08:55;;;;;;;;;;;;;;;16.22;44.42;100682.38;5075894;28;2034;-44
2023/02/19 12:11:24;;;;;;;;;;;;;;;17.35;42.14;100671.22;5073709;28;1975;-48
2023/02/19 12:13:57;;;;;;;;;;;;;;;16.41;44.12;100675.25;5074466;28;1096;-44
2023/02/19 12:16:26;;;;;;;;;;;;;;;16.29;44.43;100673.88;5074087;28;1134;-43
2023/02/19 12:19:10;;;;;;;;;;;;;;;16.97;42.81;100681.78;5075724;28;1098;-50
2023/02/19 12:21:54;;;;;;;;;;;;;;;16.31;44.29;100679.91;5063684;28;1268;-45
2023/02/19 12:24:26;;;;;;;;;;;;;;;16.42;44.19;100671.41;5075152;28;1035;-45
2023/02/19 12:27:10;;;;;;;;;;;;;;;16.62;43.46;100664.25;5075236;28;995;-48
2023/02/19 12:29:35;;;;;;;;;;;;;;;16.10;44.52;100665.34;5075591;28;1127;-47
2023/02/19 12:32:19;;;;;;;;;;;;;;;16.04;44.54;100665.31;5074985;28;1901;-48
2023/02/19 12:35:03;;;;;;;;;;;;;;;16.99;43.20;100665.03;5075506;28;1011;-47
2023/02/19 12:37:33;;;;;;;;;;;;;;;16.34;44.26;100658.22;5075315;28;1856;-48
2023/02/19 12:40:07;;;;;;;;;;;;;;;16.08;44.56;100660.13;5074586;28;1059;-50
2023/02/19 12:42:36;;;;;;;;;;;;;;;15.99;44.56;100672.72;5074125;28;1233;-48
2023/02/19 12:45:14;;;;;;;;;;;;;;;16.00;44.72;100674.38;5075398;28;1031;-49
2023/02/19 12:47:39;;;;;;;;;;;;;;;16.42;44.22;100668.66;5067991;28;1007;-48
2023/02/19 12:50:20;;;;;;;;;;;;;;;16.02;44.67;100674.91;5075275;28;1285;-45
2023/02/19 12:52:49;;;;;;;;;;;;;;;17.24;42.64;100655.88;5073114;28;1191;-47
2023/02/19 12:55:23;;;;;;;;;;;;;;;16.25;44.40;100654.38;5059107;28;1195;-47
2023/02/19 12:57:49;;;;;;;;;;;;;;;16.01;44.65;100652.16;5067075;28;1187;-48
2023/02/19 13:00:21;;;;;;;;;;;;;;;15.82;44.84;100656.53;5090716;28;1194;-47
2023/02/19 13:02:52;;;;;;;;;;;;;;;17.12;42.80;100655.38;5074177;28;1262;-48
2023/02/19 13:05:17;;;;;;;;;;;;;;;16.19;44.58;100637.09;5070735;28;1451;-48
2023/02/19 13:07:43;;;;;;;;;;;;;;;16.16;44.73;100645.03;5071886;28;1862;-50
2023/02/19 13:10:27;;;;;;;;;;;;;;;16.65;43.81;100647.22;5080196;28;1202;-51
2023/02/19 13:12:52;;;;;;;;;;;;;;;16.09;44.80;100639.84;5079243;28;1164;-48
2023/02/19 13:15:32;;;;;;;;;;;;;;;17.60;41.61;100644.72;5070461;28;1430;-50
2023/02/19 13:17:58;;;;;;;;;;;;;;;16.46;44.05;100643.41;5097158;28;1220;-48